sensor_id;sensor_type;location;lat;lon;timestamp;pressure;altitude;pressure_sealevel;temperature;humidity
85782;BME280;76219;50.128;8.728;2024-02-21T00:00:56;101456.03;;;7.33;77.46
85782;BME280;76219;50.128;8.728;2024-02-21T00:03:27;101451.09;;;7.24;79.50
85782;BME280;76219;50.128;8.728;2024-02-21T00:05:56;101436.22;;;7.21;79.10
85782;BME280;76219;50.128;8.728;2024-02-21T00:08:25;101453.81;;;7.22;77.69
85782;BME280;76219;50.128;8.728;2024-02-21T00:10:57;101460.94;;;7.20;77.90
85782;BME280;76219;50.128;8.728;2024-02-21T00:13:29;101461.78;;;7.21;78.34
85782;BME280;76219;50.128;8.728;2024-02-21T00:16:01;101446.94;;;7.18;78.81
85782;BME280;76219;50.128;8.728;2024-02-21T00:18:32;101452.31;;;7.15;78.01
85782;BME280;76219;50.128;8.728;2024-02-21T00:21:01;101440.78;;;7.18;79.04
85782;BME280;76219;50.128;8.728;2024-02-21T00:23:30;101450.53;;;7.16;79.24
85782;BME280;76219;50.128;8.728;2024-02-21T00:26:00;101439.22;;;7.12;78.70
85782;BME280;76219;50.128;8.728;2024-02-21T00:28:29;101435.66;;;7.13;78.75
85782;BME280;76219;50.128;8.728;2024-02-21T00:31:00;101425.03;;;7.15;78.87
85782;BME280;76219;50.128;8.728;2024-02-21T00:33:38;101423.09;;;7.20;79.34
85782;BME280;76219;50.128;8.728;2024-02-21T00:36:08;101412.84;;;7.11;79.01
85782;BME280;76219;50.128;8.728;2024-02-21T00:38:37;101401.56;;;7.07;79.32
85782;BME280;76219;50.128;8.728;2024-02-21T00:41:06;101404.13;;;7.09;78.52
85782;BME280;76219;50.128;8.728;2024-02-21T00:43:38;101403.09;;;7.13;78.58
85782;BME280;76219;50.128;8.728;2024-02-21T00:46:08;101390.72;;;7.13;77.74
85782;BME280;76219;50.128;8.728;2024-02-21T00:48:38;101390.78;;;7.12;78.86
85782;BME280;76219;50.128;8.728;2024-02-21T00:51:12;101388.03;;;7.15;78.17
85782;BME280;76219;50.128;8.728;2024-02-21T00:53:43;101374.88;;;7.13;78.34
85782;BME280;76219;50.128;8.728;2024-02-21T00:56:13;101364.09;;;7.19;78.02
85782;BME280;76219;50.128;8.728;2024-02-21T00:58:43;101366.94;;;7.13;78.44
85782;BME280;76219;50.128;8.728;2024-02-21T01:01:12;101369.47;;;7.16;78.35
85782;BME280;76219;50.128;8.728;2024-02-21T01:03:53;101362.25;;;7.21;77.07
85782;BME280;76219;50.128;8.728;2024-02-21T01:06:22;101365.81;;;7.20;77.14
85782;BME280;76219;50.128;8.728;2024-02-21T01:08:52;101376.38;;;7.20;77.76
85782;BME280;76219;50.128;8.728;2024-02-21T01:11:21;101376.38;;;7.20;77.56
85782;BME280;76219;50.128;8.728;2024-02-21T01:13:51;101374.47;;;7.24;77.34
85782;BME280;76219;50.128;8.728;2024-02-21T01:16:21;101369.13;;;7.25;76.76
85782;BME280;76219;50.128;8.728;2024-02-21T01:18:53;101384.69;;;7.33;76.61
85782;BME280;76219;50.128;8.728;2024-02-21T01:21:24;101377.59;;;7.34;76.58
85782;BME280;76219;50.128;8.728;2024-02-21T01:23:52;101384.69;;;7.33;76.01
85782;BME280;76219;50.128;8.728;2024-02-21T01:26:20;101392.53;;;7.35;76.91
85782;BME280;76219;50.128;8.728;2024-02-21T01:28:50;101396.03;;;7.35;77.73
85782;BME280;76219;50.128;8.728;2024-02-21T01:31:20;101392.59;;;7.33;77.28
85782;BME280;76219;50.128;8.728;2024-02-21T01:33:49;101384.84;;;7.28;77.60
85782;BME280;76219;50.128;8.728;2024-02-21T01:36:24;101388.31;;;7.30;76.86
85782;BME280;76219;50.128;8.728;2024-02-21T01:38:53;101381.31;;;7.29;76.87
85782;BME280;76219;50.128;8.728;2024-02-21T01:41:22;101385.69;;;7.29;77.52
85782;BME280;76219;50.128;8.728;2024-02-21T01:43:50;101374.34;;;7.27;77.02
85782;BME280;76219;50.128;8.728;2024-02-21T01:46:22;101375.25;;;7.26;77.77
85782;BME280;76219;50.128;8.728;2024-02-21T01:48:55;101357.69;;;7.25;77.85
85782;BME280;76219;50.128;8.728;2024-02-21T01:51:25;101355.16;;;7.22;77.99
85782;BME280;76219;50.128;8.728;2024-02-21T01:53:57;101358.03;;;7.16;77.72
85782;BME280;76219;50.128;8.728;2024-02-21T01:56:27;101339.72;;;7.11;78.21
85782;BME280;76219;50.128;8.728;2024-02-21T01:58:56;101345.81;;;7.13;77.41
85782;BME280;76219;50.128;8.728;2024-02-21T02:01:27;101352.88;;;7.13;77.84
85782;BME280;76219;50.128;8.728;2024-02-21T02:03:59;101348.47;;;7.13;78.38
85782;BME280;76219;50.128;8.728;2024-02-21T02:06:43;101354.94;;;7.05;78.67
85782;BME280;76219;50.128;8.728;2024-02-21T02:09:12;101353.16;;;7.05;78.61
85782;BME280;76219;50.128;8.728;2024-02-21T02:11:42;101343.53;;;7.04;78.03
85782;BME280;76219;50.128;8.728;2024-02-21T02:14:11;101355.88;;;7.03;78.47
85782;BME280;76219;50.128;8.728;2024-02-21T02:16:40;101351.28;;;7.09;78.29
85782;BME280;76219;50.128;8.728;2024-02-21T02:19:10;101359.44;;;7.02;78.53
85782;BME280;76219;50.128;8.728;2024-02-21T02:21:46;101351.44;;;7.04;78.65
85782;BME280;76219;50.128;8.728;2024-02-21T02:24:17;101349.84;;;7.00;78.90
85782;BME280;76219;50.128;8.728;2024-02-21T02:26:45;101349.66;;;7.05;77.95
85782;BME280;76219;50.128;8.728;2024-02-21T02:29:14;101339.88;;;7.08;78.26
85782;BME280;76219;50.128;8.728;2024-02-21T02:31:44;101326.75;;;7.05;78.35
85782;BME280;76219;50.128;8.728;2024-02-21T02:34:13;101328.38;;;7.09;78.40
85782;BME280;76219;50.128;8.728;2024-02-21T02:36:42;101325.66;;;7.11;77.67
85782;BME280;76219;50.128;8.728;2024-02-21T02:39:16;101307.97;;;7.13;78.28
85782;BME280;76219;50.128;8.728;2024-02-21T02:41:45;101303.84;;;7.06;77.84
85782;BME280;76219;50.128;8.728;2024-02-21T02:44:13;101305.59;;;7.07;77.49
85782;BME280;76219;50.128;8.728;2024-02-21T02:46:43;101293.09;;;7.10;77.22
85782;BME280;76219;50.128;8.728;2024-02-21T02:49:12;101282.66;;;7.07;77.39
85782;BME280;76219;50.128;8.728;2024-02-21T02:51:42;101298.44;;;7.09;76.62
85782;BME280;76219;50.128;8.728;2024-02-21T02:54:16;101288.69;;;7.11;77.26
85782;BME280;76219;50.128;8.728;2024-02-21T02:56:44;101289.59;;;7.10;76.55
85782;BME280;76219;50.128;8.728;2024-02-21T02:59:12;101287.88;;;7.09;77.41
85782;BME280;76219;50.128;8.728;2024-02-21T03:01:44;101291.31;;;7.11;76.84
85782;BME280;76219;50.128;8.728;2024-02-21T03:04:14;101300.09;;;7.11;77.30
85782;BME280;76219;50.128;8.728;2024-02-21T03:06:42;101300.03;;;7.13;77.08
85782;BME280;76219;50.128;8.728;2024-02-21T03:09:12;101294.69;;;7.14;76.88
85782;BME280;76219;50.128;8.728;2024-02-21T03:11:44;101284.13;;;7.14;76.93
85782;BME280;76219;50.128;8.728;2024-02-21T03:14:13;101272.56;;;7.17;77.46
85782;BME280;76219;50.128;8.728;2024-02-21T03:16:42;101264.31;;;7.24;77.40
85782;BME280;76219;50.128;8.728;2024-02-21T03:19:11;101268.13;;;7.17;77.42
85782;BME280;76219;50.128;8.728;2024-02-21T03:21:39;101258.44;;;7.18;76.83
85782;BME280;76219;50.128;8.728;2024-02-21T03:24:08;101255.81;;;7.18;77.25
85782;BME280;76219;50.128;8.728;2024-02-21T03:26:37;101249.03;;;7.11;77.56
85782;BME280;76219;50.128;8.728;2024-02-21T03:29:07;101246.13;;;7.17;77.07
85782;BME280;76219;50.128;8.728;2024-02-21T03:31:39;101240.00;;;7.16;77.63
85782;BME280;76219;50.128;8.728;2024-02-21T03:34:10;101237.56;;;7.12;77.51
85782;BME280;76219;50.128;8.728;2024-02-21T03:36:40;101227.13;;;7.09;77.58
85782;BME280;76219;50.128;8.728;2024-02-21T03:39:08;101236.56;;;7.14;77.71
85782;BME280;76219;50.128;8.728;2024-02-21T03:41:40;101227.84;;;7.12;77.79
85782;BME280;76219;50.128;8.728;2024-02-21T03:44:13;101230.56;;;7.11;77.67
85782;BME280;76219;50.128;8.728;2024-02-21T03:46:41;101236.63;;;7.13;77.30
85782;BME280;76219;50.128;8.728;2024-02-21T03:49:10;101227.97;;;7.09;77.63
85782;BME280;76219;50.128;8.728;2024-02-21T03:51:39;101228.91;;;7.08;76.83
85782;BME280;76219;50.128;8.728;2024-02-21T03:54:08;101233.38;;;7.06;76.82
85782;BME280;76219;50.128;8.728;2024-02-21T03:56:37;101231.47;;;7.10;77.08
85782;BME280;76219;50.128;8.728;2024-02-21T03:59:10;101234.19;;;7.08;77.20
85782;BME280;76219;50.128;8.728;2024-02-21T04:01:40;101241.25;;;7.08;77.60
85782;BME280;76219;50.128;8.728;2024-02-21T04:04:11;101247.56;;;7.03;77.19
85782;BME280;76219;50.128;8.728;2024-02-21T04:06:48;101235.97;;;7.08;77.04
85782;BME280;76219;50.128;8.728;2024-02-21T04:09:18;101221.63;;;7.13;77.13
85782;BME280;76219;50.128;8.728;2024-02-21T04:11:48;101221.63;;;7.13;76.96
85782;BME280;76219;50.128;8.728;2024-02-21T04:14:21;101220.84;;;7.11;76.60
85782;BME280;76219;50.128;8.728;2024-02-21T04:16:51;101226.19;;;7.10;76.89
85782;BME280;76219;50.128;8.728;2024-02-21T04:19:23;101223.72;;;7.05;77.06
85782;BME280;76219;50.128;8.728;2024-02-21T04:21:55;101228.97;;;7.07;76.70
85782;BME280;76219;50.128;8.728;2024-02-21T04:24:25;101219.19;;;7.09;76.93
85782;BME280;76219;50.128;8.728;2024-02-21T04:26:57;101228.03;;;7.08;76.99
85782;BME280;76219;50.128;8.728;2024-02-21T04:29:28;101218.19;;;7.11;76.29
85782;BME280;76219;50.128;8.728;2024-02-21T04:31:58;101196.06;;;7.14;76.36
85782;BME280;76219;50.128;8.728;2024-02-21T04:34:27;101186.00;;;7.01;76.82
85782;BME280;76219;50.128;8.728;2024-02-21T04:36:57;101185.81;;;7.06;76.64
85782;BME280;76219;50.128;8.728;2024-02-21T04:39:27;101184.00;;;7.08;76.78
85782;BME280;76219;50.128;8.728;2024-02-21T04:41:58;101175.06;;;7.11;76.50
85782;BME280;76219;50.128;8.728;2024-02-21T04:44:30;101175.22;;;7.08;76.70
85782;BME280;76219;50.128;8.728;2024-02-21T04:46:59;101172.66;;;7.05;76.18
85782;BME280;76219;50.128;8.728;2024-02-21T04:49:30;101179.63;;;7.07;76.74
85782;BME280;76219;50.128;8.728;2024-02-21T04:51:59;101177.09;;;7.04;76.70
85782;BME280;76219;50.128;8.728;2024-02-21T04:54:28;101180.06;;;6.96;76.83
85782;BME280;76219;50.128;8.728;2024-02-21T04:56:57;101181.97;;;6.93;76.51
85782;BME280;76219;50.128;8.728;2024-02-21T04:59:30;101175.34;;;6.83;76.99
85782;BME280;76219;50.128;8.728;2024-02-21T05:01:59;101168.34;;;6.82;77.21
85782;BME280;76219;50.128;8.728;2024-02-21T05:04:28;101159.03;;;6.73;77.35
85782;BME280;76219;50.128;8.728;2024-02-21T05:06:57;101154.13;;;6.64;77.64
85782;BME280;76219;50.128;8.728;2024-02-21T05:09:26;101160.38;;;6.61;77.64
85782;BME280;76219;50.128;8.728;2024-02-21T05:11:57;101165.84;;;6.57;76.88
85782;BME280;76219;50.128;8.728;2024-02-21T05:14:33;101156.19;;;6.56;76.88
85782;BME280;76219;50.128;8.728;2024-02-21T05:17:03;101173.88;;;6.54;77.65
85782;BME280;76219;50.128;8.728;2024-02-21T05:19:32;101175.72;;;6.52;77.50
85782;BME280;76219;50.128;8.728;2024-02-21T05:22:04;101172.03;;;6.56;77.60
85782;BME280;76219;50.128;8.728;2024-02-21T05:24:33;101177.59;;;6.48;77.50
85782;BME280;76219;50.128;8.728;2024-02-21T05:27:01;101179.28;;;6.51;78.26
85782;BME280;76219;50.128;8.728;2024-02-21T05:29:33;101175.59;;;6.55;78.05
85782;BME280;76219;50.128;8.728;2024-02-21T05:32:02;101179.38;;;6.48;78.56
85782;BME280;76219;50.128;8.728;2024-02-21T05:34:31;101194.34;;;6.49;77.85
85782;BME280;76219;50.128;8.728;2024-02-21T05:37:00;101191.69;;;6.49;78.07
85782;BME280;76219;50.128;8.728;2024-02-21T05:39:33;101194.50;;;6.44;78.23
85782;BME280;76219;50.128;8.728;2024-02-21T05:42:02;101202.13;;;6.52;78.22
85782;BME280;76219;50.128;8.728;2024-02-21T05:44:31;101196.78;;;6.53;78.20
85782;BME280;76219;50.128;8.728;2024-02-21T05:47:03;101200.09;;;6.58;78.38
85782;BME280;76219;50.128;8.728;2024-02-21T05:49:37;101191.81;;;6.67;77.01
85782;BME280;76219;50.128;8.728;2024-02-21T05:52:07;101180.22;;;6.71;76.79
85782;BME280;76219;50.128;8.728;2024-02-21T05:54:38;101176.81;;;6.68;77.22
85782;BME280;76219;50.128;8.728;2024-02-21T05:57:08;101167.06;;;6.70;77.37
85782;BME280;76219;50.128;8.728;2024-02-21T05:59:38;101165.34;;;6.69;76.17
85782;BME280;76219;50.128;8.728;2024-02-21T06:02:08;101160.69;;;6.76;76.72
85782;BME280;76219;50.128;8.728;2024-02-21T06:04:38;101149.91;;;6.80;76.11
85782;BME280;76219;50.128;8.728;2024-02-21T06:07:07;101149.31;;;6.73;76.53
85782;BME280;76219;50.128;8.728;2024-02-21T06:09:36;101147.00;;;6.66;76.85
85782;BME280;76219;50.128;8.728;2024-02-21T06:12:12;101142.56;;;6.66;76.40
85782;BME280;76219;50.128;8.728;2024-02-21T06:14:45;101134.84;;;6.62;76.71
85782;BME280;76219;50.128;8.728;2024-02-21T06:17:15;101123.72;;;6.54;76.81
85782;BME280;76219;50.128;8.728;2024-02-21T06:19:43;101114.72;;;6.37;77.55
85782;BME280;76219;50.128;8.728;2024-02-21T06:22:14;101109.69;;;6.31;77.65
85782;BME280;76219;50.128;8.728;2024-02-21T06:24:43;101111.47;;;6.31;77.73
85782;BME280;76219;50.128;8.728;2024-02-21T06:27:11;101132.75;;;6.26;78.60
85782;BME280;76219;50.128;8.728;2024-02-21T06:29:43;101126.00;;;6.19;77.97
85782;BME280;76219;50.128;8.728;2024-02-21T06:32:12;101138.75;;;6.08;78.40
85782;BME280;76219;50.128;8.728;2024-02-21T06:34:43;101131.16;;;6.22;78.06
85782;BME280;76219;50.128;8.728;2024-02-21T06:37:11;101121.34;;;6.26;76.90
85782;BME280;76219;50.128;8.728;2024-02-21T06:39:41;101115.38;;;6.21;77.62
85782;BME280;76219;50.128;8.728;2024-02-21T06:42:10;101107.53;;;6.19;77.80
85782;BME280;76219;50.128;8.728;2024-02-21T06:44:38;101104.22;;;6.36;77.22
85782;BME280;76219;50.128;8.728;2024-02-21T06:47:08;101100.72;;;6.35;76.72
85782;BME280;76219;50.128;8.728;2024-02-21T06:49:38;101098.13;;;6.34;77.06
85782;BME280;76219;50.128;8.728;2024-02-21T06:52:10;101093.34;;;6.43;76.32
85782;BME280;76219;50.128;8.728;2024-02-21T06:54:38;101092.19;;;6.51;76.86
85782;BME280;76219;50.128;8.728;2024-02-21T06:57:08;101091.84;;;6.58;75.47
85782;BME280;76219;50.128;8.728;2024-02-21T06:59:38;101089.97;;;6.62;75.73
85782;BME280;76219;50.128;8.728;2024-02-21T07:02:07;101085.97;;;6.73;74.69
85782;BME280;76219;50.128;8.728;2024-02-21T07:04:40;101106.66;;;6.83;74.95
85782;BME280;76219;50.128;8.728;2024-02-21T07:07:13;101102.38;;;6.80;74.94
85782;BME280;76219;50.128;8.728;2024-02-21T07:09:44;101109.19;;;7.06;73.77
85782;BME280;76219;50.128;8.728;2024-02-21T07:12:16;101109.97;;;7.28;72.80
85782;BME280;76219;50.128;8.728;2024-02-21T07:14:46;101097.06;;;7.61;71.35
85782;BME280;76219;50.128;8.728;2024-02-21T07:17:16;101094.50;;;7.79;71.14
85782;BME280;76219;50.128;8.728;2024-02-21T07:19:46;101092.41;;;7.85;70.76
85782;BME280;76219;50.128;8.728;2024-02-21T07:22:18;101095.13;;;7.84;71.13
85782;BME280;76219;50.128;8.728;2024-02-21T07:24:47;101089.97;;;8.18;70.26
85782;BME280;76219;50.128;8.728;2024-02-21T07:27:17;101079.22;;;8.22;69.17
85782;BME280;76219;50.128;8.728;2024-02-21T07:29:47;101081.38;;;8.32;68.85
85782;BME280;76219;50.128;8.728;2024-02-21T07:32:16;101084.41;;;9.63;64.90
85782;BME280;76219;50.128;8.728;2024-02-21T07:34:45;101077.16;;;9.16;65.76
85782;BME280;76219;50.128;8.728;2024-02-21T07:37:33;101086.19;;;9.62;64.87
85782;BME280;76219;50.128;8.728;2024-02-21T07:40:02;101091.97;;;9.20;65.68
85782;BME280;76219;50.128;8.728;2024-02-21T07:42:32;101083.03;;;8.88;66.91
85782;BME280;76219;50.128;8.728;2024-02-21T07:45:02;101075.44;;;9.48;65.18
85782;BME280;76219;50.128;8.728;2024-02-21T07:47:34;101092.22;;;9.98;63.59
85782;BME280;76219;50.128;8.728;2024-02-21T07:50:07;101087.28;;;9.25;65.54
85782;BME280;76219;50.128;8.728;2024-02-21T07:52:38;101080.38;;;9.72;63.62
85782;BME280;76219;50.128;8.728;2024-02-21T07:55:08;101085.56;;;9.57;64.66
85782;BME280;76219;50.128;8.728;2024-02-21T07:57:39;101081.44;;;10.48;62.42
85782;BME280;76219;50.128;8.728;2024-02-21T08:00:09;101078.81;;;11.51;58.36
85782;BME280;76219;50.128;8.728;2024-02-21T08:02:48;101088.22;;;10.98;59.50
85782;BME280;76219;50.128;8.728;2024-02-21T08:05:20;101076.31;;;11.05;58.85
85782;BME280;76219;50.128;8.728;2024-02-21T08:07:53;101081.59;;;10.13;61.30
85782;BME280;76219;50.128;8.728;2024-02-21T08:10:28;101084.03;;;11.24;58.47
85782;BME280;76219;50.128;8.728;2024-02-21T08:13:05;101079.91;;;10.12;61.35
85782;BME280;76219;50.128;8.728;2024-02-21T08:15:36;101076.56;;;10.09;62.32
85782;BME280;76219;50.128;8.728;2024-02-21T08:18:10;101076.75;;;9.57;64.08
85782;BME280;76219;50.128;8.728;2024-02-21T08:20:43;101064.28;;;10.06;62.64
85782;BME280;76219;50.128;8.728;2024-02-21T08:23:15;101062.53;;;10.68;60.91
85782;BME280;76219;50.128;8.728;2024-02-21T08:25:45;101069.25;;;9.81;62.49
85782;BME280;76219;50.128;8.728;2024-02-21T08:28:13;101064.03;;;9.79;63.52
85782;BME280;76219;50.128;8.728;2024-02-21T08:30:46;101069.22;;;9.49;64.08
85782;BME280;76219;50.128;8.728;2024-02-21T08:33:16;101058.28;;;9.71;63.16
85782;BME280;76219;50.128;8.728;2024-02-21T08:35:47;101061.50;;;9.45;64.16
85782;BME280;76219;50.128;8.728;2024-02-21T08:38:17;101052.59;;;9.46;64.36
85782;BME280;76219;50.128;8.728;2024-02-21T08:40:46;101056.44;;;9.07;65.43
85782;BME280;76219;50.128;8.728;2024-02-21T08:43:15;101054.13;;;9.34;63.96
85782;BME280;76219;50.128;8.728;2024-02-21T08:45:45;101062.38;;;9.45;63.85
85782;BME280;76219;50.128;8.728;2024-02-21T08:48:18;101058.44;;;9.52;63.67
85782;BME280;76219;50.128;8.728;2024-02-21T08:50:53;101056.09;;;9.79;62.79
85782;BME280;76219;50.128;8.728;2024-02-21T08:53:23;101050.00;;;10.40;60.99
85782;BME280;76219;50.128;8.728;2024-02-21T08:55:52;101038.47;;;9.29;64.59
85782;BME280;76219;50.128;8.728;2024-02-21T08:58:21;101039.31;;;10.42;61.76
85782;BME280;76219;50.128;8.728;2024-02-21T09:00:51;101047.09;;;9.98;61.41
85782;BME280;76219;50.128;8.728;2024-02-21T09:03:20;101039.50;;;10.23;61.13
85782;BME280;76219;50.128;8.728;2024-02-21T09:05:51;101029.03;;;9.88;62.36
85782;BME280;76219;50.128;8.728;2024-02-21T09:08:23;101022.84;;;9.56;63.13
85782;BME280;76219;50.128;8.728;2024-02-21T09:10:59;101030.09;;;9.04;64.76
85782;BME280;76219;50.128;8.728;2024-02-21T09:13:29;101021.63;;;9.46;63.02
85782;BME280;76219;50.128;8.728;2024-02-21T09:15:57;101025.56;;;9.06;64.38
85782;BME280;76219;50.128;8.728;2024-02-21T09:18:27;101017.38;;;9.44;61.66
85782;BME280;76219;50.128;8.728;2024-02-21T09:20:55;101020.13;;;9.58;62.94
85782;BME280;76219;50.128;8.728;2024-02-21T09:23:25;101018.41;;;10.04;62.34
85782;BME280;76219;50.128;8.728;2024-02-21T09:25:56;101009.69;;;9.71;62.87
85782;BME280;76219;50.128;8.728;2024-02-21T09:28:29;101001.91;;;9.68;62.55
85782;BME280;76219;50.128;8.728;2024-02-21T09:30:58;101008.56;;;9.59;63.03
85782;BME280;76219;50.128;8.728;2024-02-21T09:33:26;101006.59;;;8.81;65.25
85782;BME280;76219;50.128;8.728;2024-02-21T09:36:00;100999.22;;;8.70;66.66
85782;BME280;76219;50.128;8.728;2024-02-21T09:38:36;100996.28;;;9.25;65.22
85782;BME280;76219;50.128;8.728;2024-02-21T09:41:14;100992.38;;;9.48;63.91
85782;BME280;76219;50.128;8.728;2024-02-21T09:43:50;100992.81;;;8.57;65.30
85782;BME280;76219;50.128;8.728;2024-02-21T09:46:26;101001.66;;;9.23;63.99
85782;BME280;76219;50.128;8.728;2024-02-21T09:49:08;100996.44;;;9.06;64.40
85782;BME280;76219;50.128;8.728;2024-02-21T09:51:41;100995.69;;;9.20;64.77
85782;BME280;76219;50.128;8.728;2024-02-21T09:54:13;100979.91;;;9.01;65.58
85782;BME280;76219;50.128;8.728;2024-02-21T09:56:45;100977.38;;;9.15;64.88
85782;BME280;76219;50.128;8.728;2024-02-21T09:59:16;100981.13;;;10.81;59.50
85782;BME280;76219;50.128;8.728;2024-02-21T10:01:45;100989.50;;;11.18;57.97
85782;BME280;76219;50.128;8.728;2024-02-21T10:04:15;100986.13;;;10.58;59.48
85782;BME280;76219;50.128;8.728;2024-02-21T10:06:44;100992.09;;;10.61;59.69
85782;BME280;76219;50.128;8.728;2024-02-21T10:09:23;100985.81;;;10.92;58.90
85782;BME280;76219;50.128;8.728;2024-02-21T10:12:09;100986.75;;;11.34;57.66
85782;BME280;76219;50.128;8.728;2024-02-21T10:14:47;100972.88;;;10.86;57.64
85782;BME280;76219;50.128;8.728;2024-02-21T10:17:18;100962.09;;;9.68;61.42
85782;BME280;76219;50.128;8.728;2024-02-21T10:19:49;100967.09;;;10.35;60.32
85782;BME280;76219;50.128;8.728;2024-02-21T10:22:19;100956.38;;;9.75;61.26
85782;BME280;76219;50.128;8.728;2024-02-21T10:24:52;100946.78;;;10.34;60.83
85782;BME280;76219;50.128;8.728;2024-02-21T10:27:23;100945.34;;;10.87;57.99
85782;BME280;76219;50.128;8.728;2024-02-21T10:30:13;100946.13;;;10.15;60.01
85782;BME280;76219;50.128;8.728;2024-02-21T10:32:49;100937.31;;;10.89;57.84
85782;BME280;76219;50.128;8.728;2024-02-21T10:35:28;100932.22;;;11.41;56.72
85782;BME280;76219;50.128;8.728;2024-02-21T10:38:00;100930.19;;;11.59;55.92
85782;BME280;76219;50.128;8.728;2024-02-21T10:40:31;100930.06;;;11.05;57.08
85782;BME280;76219;50.128;8.728;2024-02-21T10:43:02;100928.34;;;10.61;59.17
85782;BME280;76219;50.128;8.728;2024-02-21T10:45:32;100920.34;;;10.47;58.81
85782;BME280;76219;50.128;8.728;2024-02-21T10:48:14;100911.44;;;10.48;59.54
85782;BME280;76219;50.128;8.728;2024-02-21T10:50:55;100914.28;;;11.30;56.85
85782;BME280;76219;50.128;8.728;2024-02-21T10:53:35;100919.13;;;11.09;57.06
85782;BME280;76219;50.128;8.728;2024-02-21T10:56:16;100906.28;;;11.30;58.07
85782;BME280;76219;50.128;8.728;2024-02-21T10:58:50;100900.56;;;10.67;58.54
85782;BME280;76219;50.128;8.728;2024-02-21T11:01:19;100905.66;;;10.98;58.32
85782;BME280;76219;50.128;8.728;2024-02-21T11:03:49;100898.94;;;10.78;57.87
85782;BME280;76219;50.128;8.728;2024-02-21T11:06:25;100899.19;;;11.17;57.50
85782;BME280;76219;50.128;8.728;2024-02-21T11:09:02;100898.00;;;10.79;58.65
85782;BME280;76219;50.128;8.728;2024-02-21T11:11:38;100884.00;;;10.33;60.02
85782;BME280;76219;50.128;8.728;2024-02-21T11:14:09;100882.78;;;10.09;60.86
85782;BME280;76219;50.128;8.728;2024-02-21T11:16:43;100880.34;;;10.93;58.37
85782;BME280;76219;50.128;8.728;2024-02-21T11:19:19;100872.28;;;10.80;59.22
85782;BME280;76219;50.128;8.728;2024-02-21T11:21:50;100863.88;;;10.29;60.85
85782;BME280;76219;50.128;8.728;2024-02-21T11:24:26;100852.28;;;11.84;56.92
85782;BME280;76219;50.128;8.728;2024-02-21T11:27:08;100848.88;;;11.14;59.32
85782;BME280;76219;50.128;8.728;2024-02-21T11:29:44;100847.72;;;11.45;57.83
85782;BME280;76219;50.128;8.728;2024-02-21T11:32:18;100835.03;;;10.94;59.74
85782;BME280;76219;50.128;8.728;2024-02-21T11:34:56;100837.28;;;11.68;56.60
85782;BME280;76219;50.128;8.728;2024-02-21T11:37:41;100848.19;;;11.24;58.12
85782;BME280;76219;50.128;8.728;2024-02-21T11:40:12;100828.22;;;11.31;56.96
85782;BME280;76219;50.128;8.728;2024-02-21T11:42:42;100816.31;;;11.37;56.71
85782;BME280;76219;50.128;8.728;2024-02-21T11:45:11;100813.19;;;11.57;56.86
85782;BME280;76219;50.128;8.728;2024-02-21T11:47:45;100802.19;;;11.76;56.03
85782;BME280;76219;50.128;8.728;2024-02-21T11:50:15;100804.63;;;11.39;57.83
85782;BME280;76219;50.128;8.728;2024-02-21T11:52:48;100795.56;;;12.21;54.87
85782;BME280;76219;50.128;8.728;2024-02-21T11:55:19;100788.19;;;12.25;54.67
85782;BME280;76219;50.128;8.728;2024-02-21T11:57:55;100787.22;;;12.26;54.97
85782;BME280;76219;50.128;8.728;2024-02-21T12:00:26;100774.97;;;12.23;54.86
85782;BME280;76219;50.128;8.728;2024-02-21T12:02:58;100777.44;;;12.26;54.64
85782;BME280;76219;50.128;8.728;2024-02-21T12:05:30;100774.31;;;11.42;57.19
85782;BME280;76219;50.128;8.728;2024-02-21T12:07:59;100766.13;;;11.45;57.77
85782;BME280;76219;50.128;8.728;2024-02-21T12:10:29;100744.81;;;10.78;58.65
85782;BME280;76219;50.128;8.728;2024-02-21T12:13:09;100766.00;;;10.51;59.34
85782;BME280;76219;50.128;8.728;2024-02-21T12:15:40;100745.53;;;10.54;59.96
85782;BME280;76219;50.128;8.728;2024-02-21T12:18:11;100733.91;;;10.69;59.35
85782;BME280;76219;50.128;8.728;2024-02-21T12:20:42;100738.53;;;10.79;59.39
85782;BME280;76219;50.128;8.728;2024-02-21T12:23:15;100732.84;;;10.71;59.16
85782;BME280;76219;50.128;8.728;2024-02-21T12:25:49;100728.81;;;10.93;58.93
85782;BME280;76219;50.128;8.728;2024-02-21T12:28:23;100727.72;;;10.82;59.82
85782;BME280;76219;50.128;8.728;2024-02-21T12:30:56;100713.81;;;10.92;59.02
85782;BME280;76219;50.128;8.728;2024-02-21T12:33:24;100705.34;;;10.99;59.11
85782;BME280;76219;50.128;8.728;2024-02-21T12:35:55;100707.44;;;11.21;57.63
85782;BME280;76219;50.128;8.728;2024-02-21T12:38:25;100695.06;;;11.07;58.71
85782;BME280;76219;50.128;8.728;2024-02-21T12:40:57;100687.88;;;10.95;59.28
85782;BME280;76219;50.128;8.728;2024-02-21T12:43:31;100693.84;;;10.99;58.27
85782;BME280;76219;50.128;8.728;2024-02-21T12:46:02;100671.97;;;11.73;57.00
85782;BME280;76219;50.128;8.728;2024-02-21T12:48:34;100660.59;;;11.71;57.14
85782;BME280;76219;50.128;8.728;2024-02-21T12:51:30;100670.16;;;11.48;57.38
85782;BME280;76219;50.128;8.728;2024-02-21T12:53:59;100665.59;;;11.76;56.55
85782;BME280;76219;50.128;8.728;2024-02-21T12:57:00;100674.88;;;11.70;56.54
85782;BME280;76219;50.128;8.728;2024-02-21T12:59:39;100659.94;;;11.67;56.32
85782;BME280;76219;50.128;8.728;2024-02-21T13:02:08;100664.00;;;11.60;55.79
85782;BME280;76219;50.128;8.728;2024-02-21T13:04:37;100647.91;;;11.62;56.91
85782;BME280;76219;50.128;8.728;2024-02-21T13:07:09;100656.75;;;11.37;57.48
85782;BME280;76219;50.128;8.728;2024-02-21T13:09:39;100649.31;;;11.02;57.50
85782;BME280;76219;50.128;8.728;2024-02-21T13:12:10;100652.72;;;11.04;58.54
85782;BME280;76219;50.128;8.728;2024-02-21T13:14:41;100643.59;;;11.08;58.60
85782;BME280;76219;50.128;8.728;2024-02-21T13:17:11;100631.72;;;11.27;58.69
85782;BME280;76219;50.128;8.728;2024-02-21T13:19:45;100630.31;;;11.34;58.19